Pagina principale
METAR-TAF:

METAR-TAF

Aeroporti :

Xi'an, Cina

latitudine: 34-26N, longitudine: 108-45E, altezza: 479 m

Osservazione

Il bollettino è stato emesso 50 minuti fa, alle 03:00 UTC
Vento 2 kt da direzioni variabili
Temperature 10°C
Umidità 27%
Pressione 1033 hPa
Visibilità 10 km o più
nessuna nube inferiore a 1500 m e nessun cumulonembo

METAR: ZLXY 210300Z VRB01MPS CAVOK 10/M08 Q1033 NOSIG

Ora: 11:50 (03:50 UTC)

Previsione

Il bollettino è stato emesso 8 ore e 36 minuti fa, alle 19:14 UTC
Previsione valida dal 21 alle 00 UTC al 21 alle 24 UTC
Vento 6 kt da ovest/sud-ovest
Visibilità: 3000 m
foschia

TAF: ZLXY 201914Z 2100/2124 24003MPS 3000 BR NSC TX10/2107Z TN00/2123Z

Osservazioni e previsioni meteorologiche di più di 4000 aeroporti (messaggi METAR e TAF).

Le stazioni disponibili sono rappresentate dai dischi gialli e rossi sulla carta.

Puntare il mouse per vedere il nome della stazione.

Clicca sopra per visualizzare le osservazioni e previsioni meteorologiche.

Per cambiare la mappa : fare clic sui pulsanti verdi con una croce nera per ingrandire, il pulsante verde con un trattino per diminuire, o sulla freccia verde per le mappe adiacenti.


METAR-TAF: